Flight Track Log - Related Links

Times and Time Zones

All times are in EDT time to prevent confusion due to time zone crossing. See the EJA589 flight status page for this flight to view local times or setup timezone preferences in your user account.

Time Position Orientation Groundspeed Altitude Reporting Facility
EDT Latitude Longitude Course Direction KTS MPH feet Rate Location/Type
Mon 08:46:05 AM 41.7500 -87.8000 155° Southeast 181 208 2,900  Level Chicago TRACON
Mon 08:46:59 AM 41.7000 -87.8333 206° Southwest 223 257 3,100 1,426 Climbing Chicago TRACON
Mon 08:48:07 AM 41.6658 -87.9067 238° Southwest 229 264 5,800 2,446 Climbing Chicago Center
Mon 08:49:09 AM 41.6244 -87.9733 230° Southwest 256 295 8,400 2,274 Climbing Chicago Center
Mon 08:50:11 AM 41.5425 -87.9681 177° South 293 337 10,500 2,516 Climbing Chicago Center
Mon 08:51:00 AM 41.1952 -87.3817 155° Southeast  Level Estimated
Mon 08:51:13 AM 41.4508 -87.9606 176° South 317 365 13,600  Level Chicago Center
Mon 08:52:15 AM 41.3611 -87.9522 176° South 315 362 17,100 3,242 Climbing Chicago Center
Mon 08:53:17 AM 41.2778 -87.9269 167° South 307 353 20,300 2,710 Climbing Chicago Center
Mon 08:54:19 AM 41.1686 -87.8892 165° South 334 384 22,700 2,129 Climbing Chicago Center
Mon 08:55:21 AM 41.0711 -87.8553 165° South 358 412 24,700 1,951 Climbing Chicago Center
Mon 08:56:22 AM 40.9700 -87.8136 163° South 378 435 26,700 1,951 Climbing Chicago Center
Mon 08:57:24 AM 40.8708 -87.7578 157° South 388 447 28,700 1,935 Climbing Chicago Center
Mon 08:58:26 AM 40.7706 -87.7028 157° South 391 450 30,700 1,935 Climbing Chicago Center
Mon 08:59:28 AM 40.6697 -87.6467 157° South 395 455 32,700 1,984 Climbing Chicago Center
Mon 09:00:30 AM 40.5486 -87.5819 158° South 394 453 34,800 1,548 Climbing Chicago Center
Mon 09:01:32 AM 40.4453 -87.5244 157° South 401 461 35,900 1,016 Climbing Chicago Center
Mon 09:02:34 AM 40.3356 -87.4664 158° South 422 486 36,900 1,024 Climbing Chicago Center
Mon 09:03:35 AM 40.2139 -87.4042 159° South 436 502 38,000 1,024 Climbing Chicago Center
Mon 09:04:37 AM 40.1000 -87.3414 157° South 442 509 39,000 556 Climbing Chicago Center
Mon 09:05:23 AM 40.0200 -87.3014 159° South 446 513 39,000  Level Indianapolis Center
Mon 09:06:25 AM 39.8856 -87.2300 158° South 446 513 39,000  Level Indianapolis Center
Mon 09:07:26 AM 39.7714 -87.1689 158° South 445 512 39,000  Level Indianapolis Center
Mon 09:08:28 AM 39.6567 -87.1086 158° South 442 509 39,000  Level Indianapolis Center
Mon 09:09:30 AM 39.5428 -87.0497 158° South 441 507 39,000  Level Indianapolis Center
Mon 09:10:31 AM 39.4289 -86.9894 158° South 442 509 39,000  Level Indianapolis Center
Mon 09:11:33 AM 39.3186 -86.9219 155° Southeast 438 504 39,000  Level Indianapolis Center
Mon 09:12:35 AM 39.1883 -86.8400 154° Southeast 444 511 39,000  Level Indianapolis Center
Mon 09:13:37 AM 39.0858 -86.7744 154° Southeast 443 510 39,000  Level Indianapolis Center
Mon 09:14:39 AM 38.9739 -86.7050 154° Southeast 443 510 39,000  Level Indianapolis Center
Mon 09:15:40 AM 38.8608 -86.6342 154° Southeast 446 513 39,000  Level Indianapolis Center
Mon 09:16:42 AM 38.7469 -86.5619 154° Southeast 449 517 39,000  Level Indianapolis Center
Mon 09:17:44 AM 38.6347 -86.4925 154° Southeast 445 512 39,000  Level Indianapolis Center
Mon 09:18:46 AM 38.5203 -86.4225 154° Southeast 449 517 39,000  Level Indianapolis Center
Mon 09:19:48 AM 38.3847 -86.3389 154° Southeast 446 513 39,000  Level Indianapolis Center
Mon 09:20:50 AM 38.2714 -86.2683 154° Southeast 448 516 39,000  Level Indianapolis Center
Mon 09:21:51 AM 38.1581 -86.1986 154° Southeast 447 514 39,000  Level Indianapolis Center
Mon 09:22:53 AM 38.0456 -86.1303 154° Southeast 446 513 39,000  Level Indianapolis Center
Mon 09:23:55 AM 37.9328 -86.0611 154° Southeast 446 513 39,000  Level Indianapolis Center
Mon 09:24:57 AM 37.8228 -85.9944 154° Southeast 439 505 39,000  Level Indianapolis Center
Mon 09:25:59 AM 37.7111 -85.9297 155° Southeast 440 506 39,000  Level Indianapolis Center
Mon 09:27:01 AM 37.6019 -85.8636 154° Southeast 434 499 39,000  Level Indianapolis Center
Mon 09:28:03 AM 37.4950 -85.7992 154° Southeast 427 491 39,000 290 Level Indianapolis Center
Mon 09:29:05 AM 37.3669 -85.7231 155° Southeast 423 487 39,600 774 Climbing Indianapolis Center
Mon 09:30:07 AM 37.2739 -85.6656 154° Southeast 415 478 40,600 677 Climbing Indianapolis Center
Mon 09:31:09 AM 37.1475 -85.5908 155° Southeast 425 489 41,000 194 Climbing Indianapolis Center
Mon 09:32:11 AM 37.0364 -85.5250 155° Southeast 435 501 41,000  Level Indianapolis Center
Mon 09:33:13 AM 36.9214 -85.4578 155° Southeast 434 499 41,000  Level Indianapolis Center
Mon 09:34:15 AM 36.8117 -85.3925 155° Southeast 435 501 41,000  Level Indianapolis Center
Mon 09:35:17 AM 36.7031 -85.3283 155° Southeast 433 498 41,000  Level Indianapolis Center
Mon 09:36:19 AM 36.5953 -85.2661 155° Southeast 427 491 41,000  Level Indianapolis Center
Mon 09:37:21 AM 36.4897 -85.2042 155° Southeast 421 484 41,000  Level Indianapolis Center
Mon 09:38:23 AM 36.3844 -85.1431 155° Southeast 418 481 41,000  Level Indianapolis Center
Mon 09:39:25 AM 36.2569 -85.0692 155° Southeast 420 483 41,000  Level Indianapolis Center
Mon 09:40:27 AM 36.1519 -85.0089 155° Southeast 416 479 41,000  Level Indianapolis Center
Mon 09:41:29 AM 36.0467 -84.9486 155° Southeast 417 480 41,000  Level Indianapolis Center
Mon 09:42:31 AM 35.9381 -84.8853 155° Southeast 418 481 41,000  Level Indianapolis Center
Mon 09:43:33 AM 35.8311 -84.8244 155° Southeast 420 483 41,000  Level Indianapolis Center
Mon 09:44:35 AM 35.7211 -84.7622 155° Southeast 413 475 41,000  Level Indianapolis Center
Mon 09:45:43 AM 35.5956 -84.6925 156° South 416 479 41,000  Level Atlanta Center
Mon 09:46:43 AM 35.4917 -84.6331 155° Southeast 416 479 41,000  Level Atlanta Center
Mon 09:47:43 AM 35.3917 -84.5789 156° South 416 479 41,000  Level Atlanta Center
Mon 09:48:43 AM 35.2856 -84.5172 155° Southeast 416 479 41,000  Level Atlanta Center
Mon 09:49:43 AM 35.1814 -84.4606 156° South 416 479 41,000  Level Atlanta Center
Mon 09:50:43 AM 35.0750 -84.4017 156° South 416 479 41,000  Level Atlanta Center
Mon 09:51:43 AM 34.9689 -84.3431 156° South 416 479 41,000  Level Atlanta Center
Mon 09:52:43 AM 34.8647 -84.2817 154° Southeast 416 479 41,000  Level Atlanta Center
Mon 09:53:43 AM 34.7708 -84.2258 154° Southeast 421 484 41,000  Level Atlanta Center
Mon 09:54:43 AM 34.6728 -84.1778 158° South 419 482 41,000  Level Atlanta Center
Mon 09:55:43 AM 34.5561 -84.1094 154° Southeast 419 482 41,000  Level Atlanta Center
Mon 09:56:43 AM 34.4539 -84.0514 155° Southeast 419 482 41,000  Level Atlanta Center
Mon 09:57:43 AM 34.3453 -83.9961 157° South 419 482 41,000  Level Atlanta Center
Mon 09:58:43 AM 34.2325 -83.9333 155° Southeast 419 482 41,000  Level Atlanta Center
Mon 09:59:43 AM 34.1303 -83.8731 154° Southeast 419 482 41,000  Level Atlanta Center
Mon 10:00:43 AM 34.0258 -83.8183 157° South 419 482 41,000  Level Atlanta Center
Mon 10:01:43 AM 33.9233 -83.7633 156° South 409 471 41,000  Level Atlanta Center
Mon 10:02:43 AM 33.8231 -83.7086 156° South 409 471 41,000  Level Atlanta Center
Mon 10:03:43 AM 33.7144 -83.6517 156° South 409 471 41,000  Level Atlanta Center
Mon 10:04:43 AM 33.6097 -83.5922 155° Southeast 415 478 41,000  Level Atlanta Center
Mon 10:05:43 AM 33.5156 -83.5431 156° South 421 484 41,000 -350 Level Atlanta Center
Mon 10:06:43 AM 33.4089 -83.4889 157° South 421 484 40,300  Descending Atlanta Center
Mon 10:07:43 AM 33.3044 -83.4322 156° South 421 484 41,000 -1,400 Climbing Atlanta Center
Mon 10:08:43 AM 33.1975 -83.3761 156° South 421 484 37,500 -2,500 Descending Atlanta Center
Mon 10:09:43 AM 33.0908 -83.3197 156° South 421 484 36,000 -1,450 Descending Atlanta Center
Mon 10:10:43 AM 32.9883 -83.2686 157° South 421 484 34,600 -1,500 Descending Atlanta Center
Mon 10:11:43 AM 32.8750 -83.2053 155° Southeast 416 479 33,000 -1,300 Descending Atlanta Center
Mon 10:12:43 AM 32.7975 -83.1664 157° South 401 461 32,000 -500 Descending Atlanta Center
Mon 10:13:43 AM 32.6906 -83.1083 155° Southeast 387 445 32,000  Level Atlanta Center
Mon 10:14:43 AM 32.5858 -83.0553 157° South 397 457 32,000  Level Atlanta Center
Mon 10:15:43 AM 32.4811 -82.9997 156° South 405 466 32,000 -50 Level Atlanta Center
Mon 10:16:43 AM 32.3742 -82.9419 155° Southeast 411 473 31,900 -1,212 Descending Atlanta Center
Mon 10:20:40 AM 31.9472 -82.7186 156° South 404 465 26,000 -1,374 Descending Jacksonville Center
Mon 10:21:40 AM 31.8406 -82.6650 157° South 404 465 25,100 -1,400 Descending Jacksonville Center
Mon 10:22:40 AM 31.7342 -82.6067 155° Southeast 415 478 23,200 -1,966 Descending Jacksonville Center
Mon 10:23:39 AM 31.6294 -82.5558 158° South 421 484 21,200 -2,000 Descending Jacksonville Center
Mon 10:24:40 AM 31.5269 -82.5050 157° South 416 479 19,200 -1,240 Descending Jacksonville Center
Mon 10:25:40 AM 31.4331 -82.4567 156° South 391 450 18,700 -655 Descending Jacksonville Center
Mon 10:26:39 AM 31.3450 -82.4183 160° South 383 441 17,900 -850 Descending Jacksonville Center
Mon 10:27:40 AM 31.2489 -82.3700 157° South 378 435 17,000 -1,140 Descending Jacksonville Center
Mon 10:28:40 AM 31.1525 -82.3222 157° South 373 429 15,600 -1,500 Descending Jacksonville Center
Mon 10:29:04 AM 31.1150 -82.3006 154° Southeast 363 418 14,900 -2,222 Descending Jacksonville Center
Mon 10:29:34 AM 31.0689 -82.2789 158° South 340 391 13,600 -1,912 Descending Jacksonville Center
Mon 10:30:35 AM 30.9914 -82.2383 156° South 283 326 12,000 -762 Descending Jacksonville Center
Mon 10:31:40 AM 30.9328 -82.1806 140° Southeast 300 345 12,000 -624 Level Jacksonville Center
Mon 10:32:40 AM 30.8781 -82.1253 139° Southeast 277 319 10,700 -1,462 Descending Jacksonville Center
Mon 10:33:39 AM 30.8233 -82.0653 137° Southeast 266 306 9,100 -1,695 Descending Jacksonville Center
Mon 10:34:51 AM 30.7497 -81.9886 138° Southeast 280 322 7,000 -1,537 Descending Jacksonville Center
Mon 10:35:40 AM 30.7119 -81.9478 137° Southeast 266 306 6,000 -1,376 Descending Jacksonville Center
Mon 10:36:40 AM 30.6531 -81.8906 140° Southeast 266 306 4,500 -1,500 Descending Jacksonville Center
Mon 10:37:40 AM 30.6025 -81.8378 138° Southeast 260 299 3,000 -1,350 Descending Jacksonville Center
Mon 10:38:40 AM 30.5561 -81.7903 139° Southeast 242 278 1,800 -1,016 Descending Jacksonville Center
Mon 10:39:44 AM 30.5181 -81.7400 131° Southeast 137 158 900 -745 Descending Jacksonville Center
Mon 10:40:57 AM 30.4906 -81.7064 134° Southeast 100 115 100 -658 Descending Jacksonville Center
Mon 10:42:00 AM 30.4941 -81.6879 135° Southeast  Level Estimated
Mon 10:49:00 AM 30.4941 -81.6879 311° West  Level Estimated

Login

Don't have an account? Register now (free) for customized features, flight alerts, and more!